createdAt,value
2023-02-18T00:00:01.302Z,10.57
2023-02-18T00:02:52.700Z,10.00
2023-02-18T00:05:40.750Z,9.17
2023-02-18T00:08:28.526Z,10.80
2023-02-18T00:11:17.643Z,10.13
2023-02-18T00:14:07.441Z,10.70
2023-02-18T00:16:55.412Z,10.97
2023-02-18T00:19:44.829Z,10.70
2023-02-18T00:22:32.797Z,8.97
2023-02-18T00:25:20.681Z,10.20
2023-02-18T00:28:08.736Z,11.87
2023-02-18T00:30:57.121Z,11.27
2023-02-18T00:33:45.258Z,12.20
2023-02-18T00:36:34.916Z,10.87
2023-02-18T00:39:22.821Z,11.97
2023-02-18T00:42:10.647Z,11.00
2023-02-18T00:44:58.504Z,10.67
2023-02-18T00:47:46.360Z,11.30
2023-02-18T00:50:34.231Z,12.37
2023-02-18T00:53:23.643Z,11.23
2023-02-18T00:56:11.828Z,11.83
2023-02-18T00:58:59.709Z,11.63
2023-02-18T01:01:47.754Z,11.97
2023-02-18T01:04:35.600Z,10.03
2023-02-18T01:07:23.474Z,11.63
2023-02-18T01:10:12.886Z,10.17
2023-02-18T01:13:01.135Z,10.67
2023-02-18T01:15:49.006Z,10.37
2023-02-18T01:18:37.389Z,9.50
2023-02-18T01:21:25.435Z,9.43
2023-02-18T01:24:13.267Z,7.90
2023-02-18T01:27:02.474Z,8.77
2023-02-18T01:29:50.257Z,7.80
2023-02-18T01:32:38.101Z,9.90
2023-02-18T01:35:26.680Z,8.00
2023-02-18T01:38:14.536Z,7.37
2023-02-18T01:41:02.435Z,8.37
2023-02-18T01:44:19.349Z,6.93
2023-02-18T01:47:07.148Z,7.30
2023-02-18T01:49:55.218Z,6.97
2023-02-18T01:52:43.017Z,5.77
2023-02-18T01:55:30.977Z,8.50
2023-02-18T01:58:19.674Z,6.50
2023-02-18T02:01:10.369Z,5.90
2023-02-18T02:03:58.273Z,6.93
2023-02-18T02:06:46.130Z,6.60
2023-02-18T02:09:35.768Z,7.07
2023-02-18T02:12:41.596Z,8.23
2023-02-18T02:15:37.454Z,6.57
2023-02-18T02:18:37.888Z,6.63
2023-02-18T02:22:02.019Z,6.13
2023-02-18T02:25:07.815Z,6.07
2023-02-18T02:28:34.569Z,6.37
2023-02-18T02:31:50.482Z,5.77
2023-02-18T02:34:53.884Z,5.40
2023-02-18T02:37:48.117Z,5.17
2023-02-18T02:40:42.251Z,5.27
2023-02-18T02:43:37.803Z,5.00
2023-02-18T02:46:31.531Z,4.27
2023-02-18T02:49:34.720Z,5.23
2023-02-18T02:52:29.561Z,4.73
2023-02-18T02:55:17.441Z,4.17
2023-02-18T02:58:05.261Z,5.30
2023-02-18T03:01:23.483Z,4.00
2023-02-18T03:04:23.766Z,4.30
2023-02-18T03:07:53.622Z,4.17
2023-02-18T03:10:49.439Z,3.77
2023-02-18T03:13:58.588Z,4.73
2023-02-18T03:16:50.581Z,4.50
2023-02-18T03:19:41.054Z,5.63
2023-02-18T03:22:33.841Z,3.67
2023-02-18T03:25:24.461Z,3.80
2023-02-18T03:28:16.641Z,4.30
2023-02-18T03:31:10.027Z,3.60
2023-02-18T03:34:03.177Z,4.43
2023-02-18T03:36:51.646Z,5.30
2023-02-18T03:39:43.286Z,5.40
2023-02-18T03:42:32.501Z,4.63
2023-02-18T03:45:20.460Z,5.20
2023-02-18T03:48:08.885Z,5.20
2023-02-18T03:50:56.864Z,5.60
2023-02-18T03:53:44.707Z,6.43
2023-02-18T03:56:32.596Z,5.93
2023-02-18T03:59:21.752Z,6.03
2023-02-18T04:02:11.513Z,5.70
2023-02-18T04:04:59.569Z,6.10
2023-02-18T04:07:47.382Z,5.17
2023-02-18T04:10:35.303Z,5.50
2023-02-18T04:13:23.316Z,6.47
2023-02-18T04:16:12.491Z,6.53
2023-02-18T04:19:00.446Z,5.70
2023-02-18T04:21:48.294Z,5.50
2023-02-18T04:24:36.126Z,6.50
2023-02-18T04:27:23.960Z,7.67
2023-02-18T04:30:12.534Z,6.87
2023-02-18T04:33:04.055Z,6.03
2023-02-18T04:35:51.947Z,6.53
2023-02-18T04:38:39.801Z,6.50
2023-02-18T04:41:27.636Z,6.93
2023-02-18T04:44:15.494Z,7.83
2023-02-18T04:47:03.326Z,7.37
2023-02-18T04:49:52.463Z,7.93
2023-02-18T04:52:40.273Z,7.50
2023-02-18T04:55:28.063Z,6.47
2023-02-18T04:58:15.869Z,6.50
2023-02-18T05:01:05.564Z,6.23
2023-02-18T05:03:53.487Z,5.57
2023-02-18T05:06:43.123Z,5.83
2023-02-18T05:09:30.931Z,6.53
2023-02-18T05:12:18.795Z,5.83
2023-02-18T05:15:07.569Z,6.20
2023-02-18T05:17:55.456Z,5.43
2023-02-18T05:20:44.542Z,5.70
2023-02-18T05:23:33.718Z,5.50
2023-02-18T05:26:21.505Z,5.90
2023-02-18T05:29:09.482Z,4.70
2023-02-18T05:31:57.415Z,7.07
2023-02-18T05:34:45.305Z,4.30
2023-02-18T05:37:33.206Z,5.70
2023-02-18T05:40:22.536Z,4.17
2023-02-18T05:43:10.361Z,3.80
2023-02-18T05:45:58.164Z,3.67
2023-02-18T05:48:48.892Z,3.53
2023-02-18T05:51:36.703Z,2.77
2023-02-18T05:54:24.903Z,4.30
2023-02-18T05:57:14.645Z,3.87
2023-02-18T06:00:02.557Z,2.57
2023-02-18T06:02:50.670Z,2.63
2023-02-18T06:05:38.642Z,2.47
2023-02-18T06:08:26.568Z,2.33
2023-02-18T06:11:17.405Z,2.20
2023-02-18T06:14:07.023Z,2.03
2023-02-18T06:16:54.985Z,2.33
2023-02-18T06:19:43.149Z,1.90
2023-02-18T06:22:31.129Z,2.30
2023-02-18T06:25:18.958Z,1.60
2023-02-18T06:28:07.033Z,2.07
2023-02-18T06:30:56.273Z,1.60
2023-02-18T06:33:44.162Z,2.17
2023-02-18T06:36:34.826Z,1.10
2023-02-18T06:39:24.596Z,1.40
2023-02-18T06:42:12.432Z,1.00
2023-02-18T06:45:00.334Z,1.07
2023-02-18T06:47:49.654Z,0.50
2023-02-18T06:50:37.447Z,0.27
2023-02-18T06:53:25.268Z,0.77
2023-02-18T06:56:13.454Z,1.37
2023-02-18T06:58:59.190Z,1.27
2023-02-18T07:01:47.421Z,0.17
2023-02-18T07:04:35.790Z,0.10
2023-02-18T07:07:23.955Z,0.20
2023-02-18T07:10:12.499Z,0.80
2023-02-18T07:13:00.476Z,0.10
2023-02-18T07:15:49.821Z,0.40
2023-02-18T07:18:37.964Z,0.10
2023-02-18T07:21:26.037Z,0.20
2023-02-18T07:24:14.060Z,0.40
2023-02-18T07:27:02.011Z,0.10
2023-02-18T07:29:50.451Z,0.00
2023-02-18T07:32:39.762Z,0.07
2023-02-18T07:35:27.992Z,0.00
2023-02-18T07:38:15.941Z,0.00
2023-02-18T07:41:04.030Z,0.67
2023-02-18T07:43:52.040Z,0.10
2023-02-18T07:46:41.644Z,0.10
2023-02-18T07:49:31.283Z,0.10
2023-02-18T07:52:19.182Z,0.10
2023-02-18T07:55:07.720Z,0.67
2023-02-18T07:58:00.848Z,0.37
2023-02-18T08:00:50.510Z,0.00
2023-02-18T08:03:39.151Z,0.50
2023-02-18T08:06:32.475Z,0.00
2023-02-18T08:09:20.644Z,0.00
2023-02-18T08:12:09.546Z,0.30
2023-02-18T08:14:57.540Z,0.00
2023-02-18T08:17:45.478Z,0.10
2023-02-18T08:20:36.536Z,0.23
2023-02-18T08:23:26.407Z,0.10
2023-02-18T08:26:14.429Z,0.10
2023-02-18T08:29:02.463Z,0.00
2023-02-18T08:31:52.131Z,0.00
2023-02-18T08:34:40.598Z,0.10
2023-02-18T08:37:28.568Z,0.00
2023-02-18T08:40:18.264Z,0.10
2023-02-18T08:43:06.264Z,0.00
2023-02-18T08:45:54.409Z,0.10
2023-02-18T08:48:42.450Z,1.20
2023-02-18T08:51:31.485Z,0.07
2023-02-18T08:54:20.077Z,0.00
2023-02-18T08:57:09.450Z,0.10
2023-02-18T08:59:57.711Z,0.73
2023-02-18T09:02:47.466Z,0.93
2023-02-18T09:05:35.440Z,0.20
2023-02-18T09:08:23.441Z,1.57
2023-02-18T09:11:12.502Z,0.20
2023-02-18T09:14:02.956Z,1.00
2023-02-18T09:16:51.222Z,0.70
2023-02-18T09:19:39.260Z,0.30
2023-02-18T09:22:27.353Z,0.23
2023-02-18T09:25:15.477Z,0.20
2023-02-18T09:28:03.468Z,0.10
2023-02-18T09:30:53.563Z,0.20
2023-02-18T09:33:45.665Z,0.10
2023-02-18T09:36:35.291Z,0.20
2023-02-18T09:39:23.474Z,0.33
2023-02-18T09:42:16.395Z,0.87
2023-02-18T09:45:07.616Z,1.03
2023-02-18T09:47:57.450Z,0.93
2023-02-18T09:50:51.684Z,0.70
2023-02-18T09:53:39.789Z,0.80
2023-02-18T09:56:31.656Z,0.73
2023-02-18T09:59:22.500Z,0.40
2023-02-18T10:02:16.951Z,0.60
2023-02-18T10:05:06.685Z,0.50
2023-02-18T10:07:59.320Z,0.40
2023-02-18T10:10:48.516Z,0.40
2023-02-18T10:13:36.698Z,0.30
2023-02-18T10:16:26.302Z,0.60
2023-02-18T10:19:24.254Z,0.40
2023-02-18T10:22:15.891Z,0.33
2023-02-18T10:25:07.467Z,0.80
2023-02-18T10:27:55.665Z,0.50
2023-02-18T10:30:45.276Z,0.60
2023-02-18T10:33:36.313Z,0.57
2023-02-18T10:36:32.424Z,0.70
2023-02-18T10:39:44.819Z,0.80
2023-02-18T10:42:45.116Z,0.97
2023-02-18T10:45:43.536Z,1.13
2023-02-18T10:48:52.103Z,2.03
2023-02-18T10:51:47.796Z,1.07
2023-02-18T10:54:53.530Z,4.27
2023-02-18T10:57:49.721Z,1.97
2023-02-18T11:00:41.068Z,2.13
2023-02-18T11:03:41.401Z,3.20
2023-02-18T11:06:33.905Z,1.90
2023-02-18T11:09:29.938Z,1.47
2023-02-18T11:12:24.214Z,1.23
2023-02-18T11:15:20.398Z,0.97
2023-02-18T11:18:15.064Z,1.10
2023-02-18T11:21:05.218Z,2.97
2023-02-18T11:23:54.975Z,3.87
2023-02-18T11:26:44.209Z,1.57
2023-02-18T11:29:35.036Z,3.50
2023-02-18T11:32:23.211Z,1.80
2023-02-18T11:35:19.556Z,2.87
2023-02-18T11:38:24.784Z,3.67
2023-02-18T11:41:16.580Z,1.33
2023-02-18T11:44:07.201Z,1.40
2023-02-18T11:47:02.214Z,1.37
2023-02-18T11:50:02.860Z,1.90
2023-02-18T11:52:53.813Z,1.33
2023-02-18T11:55:56.224Z,1.47
2023-02-18T11:58:46.688Z,0.90
2023-02-18T12:01:46.356Z,3.13
2023-02-18T12:04:42.666Z,3.20
2023-02-18T12:07:35.487Z,0.67
2023-02-18T12:10:28.598Z,0.93
2023-02-18T12:13:25.899Z,0.87
2023-02-18T12:16:26.762Z,0.83
2023-02-18T12:19:27.855Z,0.30
2023-02-18T12:22:23.286Z,0.80
2023-02-18T12:25:30.372Z,0.90
2023-02-18T12:28:29.348Z,0.50
2023-02-18T12:31:56.324Z,1.23
2023-02-18T12:34:58.913Z,0.40
2023-02-18T12:38:23.653Z,0.20
2023-02-18T12:41:28.695Z,0.10
2023-02-18T12:44:33.105Z,1.03
2023-02-18T12:47:46.971Z,0.30
2023-02-18T12:50:50.593Z,0.33
2023-02-18T12:53:58.428Z,0.20
2023-02-18T12:57:09.780Z,0.23
2023-02-18T13:00:38.089Z,0.20
2023-02-18T13:03:49.597Z,0.10
2023-02-18T13:07:05.677Z,0.10
2023-02-18T13:10:21.203Z,0.30
2023-02-18T13:13:12.936Z,0.50
2023-02-18T13:16:05.729Z,0.97
2023-02-18T13:19:03.075Z,0.10
2023-02-18T13:21:54.347Z,0.10
2023-02-18T13:24:45.970Z,0.10
2023-02-18T13:27:40.162Z,2.27
2023-02-18T13:30:35.777Z,0.10
2023-02-18T13:33:30.137Z,0.10
2023-02-18T13:36:33.761Z,0.47
2023-02-18T13:39:24.379Z,0.10
2023-02-18T13:42:25.307Z,0.10
2023-02-18T13:45:33.372Z,0.13
2023-02-18T13:48:28.464Z,0.10
2023-02-18T13:51:18.228Z,0.57
2023-02-18T13:54:17.895Z,0.10
2023-02-18T13:57:08.083Z,0.10
2023-02-18T13:59:59.025Z,0.40
2023-02-18T14:03:00.085Z,1.57
2023-02-18T14:05:48.262Z,0.30
2023-02-18T14:08:37.961Z,9.03
2023-02-18T14:11:41.329Z,61.47
2023-02-18T14:14:50.257Z,10.37
2023-02-18T14:17:45.141Z,0.40
2023-02-18T14:20:51.351Z,0.10
2023-02-18T14:23:57.439Z,0.10
2023-02-18T14:26:48.065Z,0.50
2023-02-18T14:29:36.180Z,0.40
2023-02-18T14:32:24.187Z,1.33
2023-02-18T14:35:27.926Z,1.70
2023-02-18T14:38:32.229Z,0.03
2023-02-18T14:41:35.687Z,0.20
2023-02-18T14:44:40.301Z,0.00
2023-02-18T14:47:35.980Z,0.20
2023-02-18T14:50:24.577Z,0.43
2023-02-18T14:53:18.593Z,0.30
2023-02-18T14:56:11.917Z,0.77
2023-02-18T14:59:03.541Z,0.20
2023-02-18T15:01:55.022Z,0.13
2023-02-18T15:04:42.876Z,0.00
2023-02-18T15:07:33.454Z,0.10
2023-02-18T15:10:21.289Z,0.37
2023-02-18T15:13:17.820Z,0.10
2023-02-18T15:16:09.703Z,0.20
2023-02-18T15:19:00.120Z,0.20
2023-02-18T15:21:50.782Z,0.70
2023-02-18T15:24:39.768Z,0.17
2023-02-18T15:27:33.784Z,1.10
2023-02-18T15:30:29.035Z,0.00
2023-02-18T15:33:20.092Z,0.30
2023-02-18T15:36:14.476Z,0.37
2023-02-18T15:39:03.935Z,0.20
2023-02-18T15:41:55.681Z,1.03
2023-02-18T15:44:48.407Z,0.07
2023-02-18T15:47:43.151Z,0.40
2023-02-18T15:50:40.793Z,0.20
2023-02-18T15:53:28.926Z,0.43
2023-02-18T15:56:22.656Z,0.20
2023-02-18T15:59:14.797Z,0.30
2023-02-18T16:02:17.348Z,0.10
2023-02-18T16:05:15.044Z,0.30
2023-02-18T16:08:08.419Z,0.20
2023-02-18T16:11:02.960Z,0.10
2023-02-18T16:13:50.992Z,0.33
2023-02-18T16:16:40.648Z,0.40
2023-02-18T16:19:28.502Z,0.20
2023-02-18T16:22:37.574Z,0.20
2023-02-18T16:25:28.450Z,0.10
2023-02-18T16:28:19.449Z,0.40
2023-02-18T16:31:07.264Z,0.20
2023-02-18T16:33:55.138Z,0.17
2023-02-18T16:37:03.200Z,0.37
2023-02-18T16:39:55.152Z,0.40
2023-02-18T16:42:42.958Z,0.40
2023-02-18T16:45:36.292Z,0.30
2023-02-18T16:48:28.955Z,0.50
2023-02-18T16:51:19.739Z,0.20
2023-02-18T16:54:07.602Z,0.57
2023-02-18T16:56:56.804Z,1.10
2023-02-18T16:59:44.568Z,0.40
2023-02-18T17:02:32.793Z,0.30
2023-02-18T17:05:27.163Z,0.60
2023-02-18T17:08:23.291Z,0.47
2023-02-18T17:11:16.978Z,0.40
2023-02-18T17:14:06.113Z,1.00
2023-02-18T17:16:55.242Z,0.60
2023-02-18T17:19:43.251Z,0.70
2023-02-18T17:22:31.160Z,0.60
2023-02-18T17:25:23.399Z,0.53
2023-02-18T17:28:11.240Z,0.80
2023-02-18T17:31:00.605Z,0.80
2023-02-18T17:33:48.716Z,0.50
2023-02-18T17:36:36.531Z,0.40
2023-02-18T17:39:24.533Z,0.50
2023-02-18T17:42:12.831Z,0.60
2023-02-18T17:45:02.496Z,0.60
2023-02-18T17:47:54.400Z,0.60
2023-02-18T17:50:42.701Z,0.70
2023-02-18T17:53:30.584Z,0.77
2023-02-18T17:56:18.420Z,1.10
2023-02-18T17:59:06.445Z,2.83
2023-02-18T18:01:54.268Z,1.77
2023-02-18T18:04:43.421Z,2.13
2023-02-18T18:07:31.432Z,2.20
2023-02-18T18:10:21.906Z,1.93
2023-02-18T18:13:16.481Z,2.90
2023-02-18T18:16:04.638Z,2.90
2023-02-18T18:18:52.734Z,3.13
2023-02-18T18:21:42.112Z,2.80
2023-02-18T18:24:30.162Z,3.80
2023-02-18T18:27:17.961Z,3.30
2023-02-18T18:30:06.778Z,4.50
2023-02-18T18:32:55.110Z,3.77
2023-02-18T18:35:43.711Z,4.07
2023-02-18T18:38:32.863Z,3.77
2023-02-18T18:41:22.292Z,4.07
2023-02-18T18:44:11.751Z,3.90
2023-02-18T18:46:59.557Z,5.00
2023-02-18T18:49:48.032Z,6.23
2023-02-18T18:52:36.059Z,3.90
2023-02-18T18:55:28.797Z,3.40
2023-02-18T18:58:20.537Z,3.50
2023-02-18T19:01:15.925Z,6.33
2023-02-18T19:04:03.767Z,6.03
2023-02-18T19:06:51.580Z,4.30
2023-02-18T19:09:39.392Z,5.63
2023-02-18T19:12:28.515Z,5.80
2023-02-18T19:15:18.977Z,6.27
2023-02-18T19:18:08.079Z,4.87
2023-02-18T19:20:56.245Z,5.83
2023-02-18T19:23:44.051Z,5.73
2023-02-18T19:26:32.503Z,6.13
2023-02-18T19:29:23.360Z,5.47
2023-02-18T19:32:11.153Z,6.50
2023-02-18T19:34:58.949Z,4.17
2023-02-18T19:37:47.599Z,4.20
2023-02-18T19:40:35.444Z,4.30
2023-02-18T19:43:23.250Z,6.53
2023-02-18T19:46:14.585Z,7.43
2023-02-18T19:49:02.486Z,5.93
2023-02-18T19:51:50.291Z,4.47
2023-02-18T19:54:38.105Z,4.63
2023-02-18T19:57:25.982Z,6.50
2023-02-18T20:00:15.760Z,4.70
2023-02-18T20:03:05.318Z,4.50
2023-02-18T20:05:53.106Z,5.50
2023-02-18T20:08:40.913Z,6.40
2023-02-18T20:11:30.976Z,4.87
2023-02-18T20:14:20.247Z,6.23
2023-02-18T20:17:08.794Z,5.70
2023-02-18T20:19:57.935Z,4.53
2023-02-18T20:22:46.326Z,5.83
2023-02-18T20:25:34.124Z,4.67
2023-02-18T20:28:21.970Z,4.33
2023-02-18T20:31:12.696Z,6.00
2023-02-18T20:34:00.964Z,7.00
2023-02-18T20:36:51.499Z,6.80
2023-02-18T20:39:39.311Z,5.73
2023-02-18T20:42:27.282Z,7.37
2023-02-18T20:45:18.156Z,6.37
2023-02-18T20:48:06.486Z,5.17
2023-02-18T20:50:54.253Z,5.50
2023-02-18T20:53:44.999Z,6.13
2023-02-18T20:56:32.754Z,8.30
2023-02-18T20:59:21.696Z,6.87
2023-02-18T21:02:09.721Z,8.63
2023-02-18T21:04:57.552Z,9.03
2023-02-18T21:07:45.357Z,8.83
2023-02-18T21:10:34.514Z,9.83
2023-02-18T21:13:22.683Z,9.63
2023-02-18T21:16:11.129Z,8.40
2023-02-18T21:18:59.578Z,8.90
2023-02-18T21:21:47.949Z,11.30
2023-02-18T21:24:35.760Z,10.00
2023-02-18T21:27:24.881Z,8.73
2023-02-18T21:30:13.082Z,8.93
2023-02-18T21:33:00.917Z,7.87
2023-02-18T21:35:48.955Z,7.80
2023-02-18T21:38:36.761Z,7.87
2023-02-18T21:41:25.591Z,7.23
2023-02-18T21:44:14.712Z,6.23
2023-02-18T21:47:02.478Z,7.10
2023-02-18T21:49:50.379Z,6.00
2023-02-18T21:52:38.196Z,5.97
2023-02-18T21:55:26.317Z,5.57
2023-02-18T21:58:15.826Z,4.80
2023-02-18T22:01:05.173Z,4.23
2023-02-18T22:03:54.483Z,3.77
2023-02-18T22:06:42.295Z,4.63
2023-02-18T22:09:30.701Z,3.33
2023-02-18T22:12:19.256Z,3.47
2023-02-18T22:15:09.413Z,3.50
2023-02-18T22:17:58.615Z,2.90
2023-02-18T22:20:46.397Z,2.87
2023-02-18T22:23:34.663Z,3.40
2023-02-18T22:26:22.563Z,3.47
2023-02-18T22:29:11.827Z,4.37
2023-02-18T22:31:59.878Z,4.00
2023-02-18T22:34:49.190Z,4.00
2023-02-18T22:37:37.068Z,3.73
2023-02-18T22:40:25.113Z,4.80
2023-02-18T22:43:13.113Z,6.00
2023-02-18T22:46:03.988Z,4.30
2023-02-18T22:48:51.970Z,5.83
2023-02-18T22:51:43.430Z,7.00
2023-02-18T22:54:31.253Z,7.67
2023-02-18T22:57:19.053Z,6.33
2023-02-18T23:00:10.622Z,6.60
2023-02-18T23:02:58.430Z,7.07
2023-02-18T23:05:46.288Z,7.73
2023-02-18T23:08:35.490Z,6.87
2023-02-18T23:11:23.598Z,6.87
2023-02-18T23:14:23.476Z,6.67
2023-02-18T23:17:14.950Z,6.27
2023-02-18T23:20:03.414Z,7.43
2023-02-18T23:22:51.258Z,6.07
2023-02-18T23:25:40.555Z,6.83
2023-02-18T23:28:28.629Z,5.53
2023-02-18T23:31:18.250Z,5.43
2023-02-18T23:34:08.014Z,5.87
2023-02-18T23:36:56.001Z,5.50
2023-02-18T23:39:45.157Z,6.03
2023-02-18T23:42:34.412Z,5.77
2023-02-18T23:45:22.661Z,5.60
2023-02-18T23:48:10.696Z,6.70
2023-02-18T23:51:02.998Z,5.80
2023-02-18T23:53:51.523Z,4.97
2023-02-18T23:56:39.606Z,5.67
2023-02-18T23:59:28.830Z,5.33
